createdAt,value
2023-05-13T00:08:00.422Z,0
2023-05-13T00:13:17.500Z,0
2023-05-13T00:18:34.526Z,0
2023-05-13T00:23:51.627Z,0
2023-05-13T00:29:08.956Z,0
2023-05-13T00:34:26.150Z,0
2023-05-13T00:40:00.601Z,0
2023-05-13T00:45:18.208Z,0
2023-05-13T00:50:35.425Z,0
2023-05-13T00:55:52.723Z,0
2023-05-13T01:01:09.912Z,0
2023-05-13T01:06:27.110Z,0
2023-05-13T01:11:44.314Z,0
2023-05-13T01:17:01.704Z,0
2023-05-13T01:27:39.056Z,0
2023-05-13T01:32:56.461Z,0
2023-05-13T01:38:13.837Z,0
2023-05-13T01:43:31.010Z,0
2023-05-13T01:48:48.191Z,0
2023-05-13T01:54:05.381Z,0
2023-05-13T01:59:22.870Z,0
2023-05-13T02:04:40.225Z,0
2023-05-13T02:09:57.503Z,0
2023-05-13T02:15:14.749Z,0
2023-05-13T02:20:32.057Z,0
2023-05-13T02:25:49.356Z,0
2023-05-13T02:31:06.696Z,0
2023-05-13T02:36:23.920Z,0
2023-05-13T02:41:41.149Z,0
2023-05-13T02:46:58.435Z,0
2023-05-13T02:52:15.724Z,0
2023-05-13T02:57:33.023Z,0
2023-05-13T03:02:50.445Z,0
2023-05-13T03:08:07.885Z,0
2023-05-13T03:13:25.045Z,0
2023-05-13T03:18:42.435Z,0
2023-05-13T03:23:59.648Z,0
2023-05-13T03:35:06.490Z,26.2
2023-05-13T03:40:23.495Z,50.4
2023-05-13T03:45:40.573Z,87.5
2023-05-13T03:50:57.449Z,132.5
2023-05-13T03:56:14.543Z,183.3
2023-05-13T04:01:31.616Z,242.1
2023-05-13T04:06:48.671Z,356.7
2023-05-13T04:12:05.879Z,521.7
2023-05-13T04:17:23.052Z,690
2023-05-13T04:22:40.083Z,791.7
2023-05-13T04:27:57.020Z,940.8
2023-05-13T04:33:14.080Z,1055.4
2023-05-13T04:38:31.146Z,1367.5
2023-05-13T04:43:48.059Z,1800.4
2023-05-13T04:49:05.228Z,2302.5
2023-05-13T04:54:23.044Z,2195
2023-05-13T04:59:40.032Z,2527.5
2023-05-13T05:04:57.014Z,2428.8
2023-05-13T05:10:14.017Z,2372.9
2023-05-13T05:15:31.210Z,2516.7
2023-05-13T05:20:48.299Z,3557.9
2023-05-13T05:26:11.493Z,5123.3
2023-05-13T05:31:29.750Z,4818.3
2023-05-13T05:36:46.621Z,4042.9
2023-05-13T05:42:03.581Z,4185
2023-05-13T05:47:20.547Z,4073.3
2023-05-13T05:52:37.245Z,4420
2023-05-13T05:57:54.317Z,4663.3
2023-05-13T06:03:11.458Z,4267.1
2023-05-13T06:08:28.444Z,4085.8
2023-05-13T06:13:45.332Z,4853.8
2023-05-13T06:19:02.339Z,5762.1
2023-05-13T06:29:36.486Z,7339.6
2023-05-13T06:34:55.218Z,4666.7
2023-05-13T06:40:12.463Z,4025
2023-05-13T06:45:29.274Z,4776.2
2023-05-13T06:50:46.530Z,5518.8
2023-05-13T06:56:03.725Z,5675.8
2023-05-13T07:01:20.830Z,6802.1
2023-05-13T07:06:38.273Z,6323.8
2023-05-13T07:11:55.318Z,6231.3
2023-05-13T07:17:12.456Z,18290.8
2023-05-13T07:22:29.824Z,11558.3
2023-05-13T07:38:56.823Z,9270.8
2023-05-13T07:44:14.113Z,13005
2023-05-13T07:49:31.902Z,14426.7
2023-05-13T07:54:49.280Z,7601.3
2023-05-13T08:00:08.697Z,6783.3
2023-05-13T08:05:25.864Z,6846.7
2023-05-13T08:16:06.663Z,7890.4
2023-05-13T08:21:23.820Z,33150.8
2023-05-13T08:26:41.110Z,33935
2023-05-13T08:31:58.435Z,36293.3
2023-05-13T08:37:16.070Z,38118.3
2023-05-13T08:42:41.437Z,11699.2
2023-05-13T08:47:59.601Z,9155.4
2023-05-13T08:53:25.218Z,9267.9
2023-05-13T08:58:42.943Z,9237.5
2023-05-13T09:04:00.901Z,9989.6
2023-05-13T09:09:18.271Z,12725.4
2023-05-13T09:14:44.329Z,44268.3
2023-05-13T09:20:00.545Z,47318.3
2023-05-13T09:25:36.730Z,19429.2
2023-05-13T09:30:53.921Z,18702.9
2023-05-13T09:36:10.757Z,19285.4
2023-05-13T09:41:28.025Z,19879.2
2023-05-13T09:46:47.242Z,50012.4
2023-05-13T09:52:04.228Z,20458.3
2023-05-13T09:57:23.249Z,19652.9
2023-05-13T10:02:39.780Z,22982.1
2023-05-13T10:07:58.649Z,51854.2
2023-05-13T10:13:15.971Z,61992.2
2023-05-13T10:18:32.483Z,14448.7
2023-05-13T10:23:47.808Z,13556.2
2023-05-13T10:29:06.785Z,15588.3
2023-05-13T10:34:23.873Z,17870
2023-05-13T10:40:18.982Z,20307.5
2023-05-13T10:45:35.148Z,14409.2
2023-05-13T10:56:17.067Z,18236.2
2023-05-13T11:01:35.990Z,18662.5
2023-05-13T11:07:02.095Z,61938.3
2023-05-13T11:12:21.326Z,59257.3
2023-05-13T11:17:39.234Z,57907.9
2023-05-13T11:23:04.150Z,60358.8
2023-05-13T11:28:22.247Z,62044.3
2023-05-13T11:33:39.232Z,61151.3
2023-05-13T11:38:56.563Z,59106.4
2023-05-13T11:44:13.828Z,57370.6
2023-05-13T11:49:31.033Z,54272.8
2023-05-13T11:54:47.929Z,52168.7
2023-05-13T12:00:05.158Z,51811.1
2023-05-13T12:05:22.345Z,52675.4
2023-05-13T12:11:17.232Z,53500.2
2023-05-13T12:16:34.874Z,51784.1
2023-05-13T12:21:54.708Z,55047.3
2023-05-13T12:27:11.707Z,26422.9
2023-05-13T12:32:29.533Z,25328.3
2023-05-13T12:39:09.858Z,56736.3
2023-05-13T12:44:24.944Z,13063.3
2023-05-13T12:49:39.455Z,14270.8
2023-05-13T12:54:56.073Z,19579.2
2023-05-13T13:00:14.176Z,58107.3
2023-05-13T13:05:31.497Z,15035.8
2023-05-13T13:10:48.456Z,13812.9
2023-05-13T13:16:06.644Z,14675
2023-05-13T13:21:24.605Z,42225
2023-05-13T13:26:44.463Z,42861.7
2023-05-13T13:32:02.599Z,49274.2
2023-05-13T13:37:18.933Z,51949.5
2023-05-13T13:42:43.882Z,45917.5
2023-05-13T13:47:58.920Z,18846.2
2023-05-13T13:53:17.010Z,37916.7
2023-05-13T13:58:35.711Z,20454.2
2023-05-13T14:03:51.823Z,35406.7
2023-05-13T14:09:10.260Z,42288.3
2023-05-13T14:14:28.006Z,38499.2
2023-05-13T14:19:45.151Z,31642.5
2023-05-13T14:25:51.718Z,35783.3
2023-05-13T14:31:09.050Z,35675.8
2023-05-13T14:36:26.244Z,33699.2
2023-05-13T14:41:43.649Z,40812.5
2023-05-13T14:47:01.347Z,17057.9
2023-05-13T14:52:17.504Z,33032.5
2023-05-13T14:57:34.320Z,28541.7
2023-05-13T15:02:51.628Z,26702.1
2023-05-13T15:08:08.792Z,21923.7
2023-05-13T15:13:27.369Z,9535.8
2023-05-13T15:18:42.748Z,8717.5
2023-05-13T15:23:58.771Z,8645.8
2023-05-13T15:29:17.484Z,24114.6
2023-05-13T15:34:34.905Z,9459.6
2023-05-13T15:39:51.051Z,25464.6
2023-05-13T15:45:08.984Z,9674.6
2023-05-13T15:50:31.962Z,9108.7
2023-05-13T15:55:48.648Z,7380
2023-05-13T16:01:04.768Z,8887.9
2023-05-13T16:06:25.318Z,7655
2023-05-13T16:11:42.062Z,4892.9
2023-05-13T16:16:58.394Z,4653.8
2023-05-13T16:22:15.174Z,4771.3
2023-05-13T16:28:07.111Z,4571.2
2023-05-13T16:33:24.008Z,4492.5
2023-05-13T16:38:40.718Z,5475
2023-05-13T16:44:18.972Z,8312.1
2023-05-13T16:49:36.488Z,9755
2023-05-13T16:54:53.387Z,2835.4
2023-05-13T17:00:12.297Z,975.8
2023-05-13T17:05:29.237Z,483.8
2023-05-13T17:10:46.024Z,684.2
2023-05-13T17:21:07.356Z,999.2
2023-05-13T17:26:24.007Z,538.7
2023-05-13T17:31:40.661Z,317.5
2023-05-13T17:36:57.557Z,301.2
2023-05-13T17:42:17.389Z,310.4
2023-05-13T17:47:34.211Z,482.9
2023-05-13T17:52:58.676Z,651.2
2023-05-13T17:58:15.975Z,719.2
2023-05-13T18:03:32.775Z,707.9
2023-05-13T18:08:49.682Z,734.2
2023-05-13T18:14:06.822Z,923.7
2023-05-13T18:25:17.675Z,1288.7
2023-05-13T18:30:43.548Z,1106.3
2023-05-13T18:36:00.692Z,849.6
2023-05-13T18:41:17.922Z,670.8
2023-05-13T18:46:34.798Z,549.2
2023-05-13T18:51:51.967Z,475.4
2023-05-13T18:57:08.989Z,410.4
2023-05-13T19:02:26.143Z,311.2
2023-05-13T19:07:43.881Z,208.8
2023-05-13T19:13:00.740Z,136.3
2023-05-13T19:23:37.770Z,44.6
2023-05-13T19:28:54.989Z,22.1
2023-05-13T19:34:12.381Z,0.5
2023-05-13T19:39:29.833Z,4.5
2023-05-13T19:44:47.238Z,1.8
2023-05-13T19:50:04.837Z,0.8
2023-05-13T19:55:22.031Z,0.3
2023-05-13T20:00:39.644Z,0
2023-05-13T20:05:56.923Z,0
2023-05-13T20:11:14.127Z,0
2023-05-13T20:16:31.512Z,0
2023-05-13T20:21:49.225Z,0
2023-05-13T20:27:06.552Z,0
2023-05-13T20:32:24.010Z,0
2023-05-13T20:37:41.481Z,0
2023-05-13T20:42:59.069Z,0
2023-05-13T20:48:16.432Z,0
2023-05-13T20:53:37.379Z,0
2023-05-13T20:58:57.739Z,0
2023-05-13T21:04:15.535Z,0
2023-05-13T21:09:32.984Z,0
2023-05-13T21:14:50.268Z,0
2023-05-13T21:20:07.492Z,0
2023-05-13T21:25:24.634Z,0
2023-05-13T21:30:42.043Z,0
2023-05-13T21:35:59.209Z,0
2023-05-13T21:41:16.447Z,0
2023-05-13T21:46:33.845Z,0
2023-05-13T21:51:51.203Z,0
2023-05-13T21:57:08.398Z,0
2023-05-13T22:02:25.665Z,0
2023-05-13T22:07:43.039Z,0
2023-05-13T22:13:00.299Z,0
2023-05-13T22:18:17.824Z,0
2023-05-13T22:23:35.181Z,0
2023-05-13T22:28:52.675Z,0
2023-05-13T22:34:09.865Z,0
2023-05-13T22:39:27.142Z,0
2023-05-13T22:44:44.456Z,0
2023-05-13T22:50:02.064Z,0
2023-05-13T22:55:19.463Z,0
2023-05-13T23:00:36.733Z,0
2023-05-13T23:05:53.886Z,0
2023-05-13T23:11:18.406Z,0
2023-05-13T23:16:35.731Z,0
2023-05-13T23:21:52.883Z,0
2023-05-13T23:27:19.169Z,0
2023-05-13T23:32:36.551Z,0
2023-05-13T23:37:53.665Z,0
2023-05-13T23:43:19.562Z,0
2023-05-13T23:48:36.968Z,0
2023-05-13T23:53:54.159Z,0
2023-05-13T23:59:11.501Z,0
